sensor_id;sensor_type;location;lat;lon;timestamp;pressure;altitude;pressure_sealevel;temperature;humidity
57594;BME280;43423;46.510;6.686;2023-11-22T00:00:40;96487.34;;;7.34;100.00
57594;BME280;43423;46.510;6.686;2023-11-22T00:03:26;96478.53;;;7.39;100.00
57594;BME280;43423;46.510;6.686;2023-11-22T00:05:52;96475.22;;;7.44;100.00
57594;BME280;43423;46.510;6.686;2023-11-22T00:08:17;96488.72;;;7.20;100.00
57594;BME280;43423;46.510;6.686;2023-11-22T00:10:43;96485.53;;;7.21;100.00
57594;BME280;43423;46.510;6.686;2023-11-22T00:13:10;96483.56;;;7.13;100.00
57594;BME280;43423;46.510;6.686;2023-11-22T00:15:37;96484.28;;;6.95;100.00
57594;BME280;43423;46.510;6.686;2023-11-22T00:18:02;96484.44;;;7.10;100.00
57594;BME280;43423;46.510;6.686;2023-11-22T00:20:32;96474.72;;;7.18;100.00
57594;BME280;43423;46.510;6.686;2023-11-22T00:22:59;96471.69;;;6.97;100.00
57594;BME280;43423;46.510;6.686;2023-11-22T00:25:24;96464.72;;;7.15;100.00
57594;BME280;43423;46.510;6.686;2023-11-22T00:27:50;96460.00;;;7.34;100.00
57594;BME280;43423;46.510;6.686;2023-11-22T00:30:16;96471.09;;;7.30;100.00
57594;BME280;43423;46.510;6.686;2023-11-22T00:32:41;96473.22;;;7.17;100.00
57594;BME280;43423;46.510;6.686;2023-11-22T00:35:07;96476.88;;;7.23;100.00
57594;BME280;43423;46.510;6.686;2023-11-22T00:37:33;96472.91;;;7.24;100.00
57594;BME280;43423;46.510;6.686;2023-11-22T00:40:01;96477.78;;;7.29;100.00
57594;BME280;43423;46.510;6.686;2023-11-22T00:42:31;96491.75;;;7.31;100.00
57594;BME280;43423;46.510;6.686;2023-11-22T00:44:57;96486.59;;;7.15;100.00
57594;BME280;43423;46.510;6.686;2023-11-22T00:47:22;96492.97;;;7.12;100.00
57594;BME280;43423;46.510;6.686;2023-11-22T00:49:48;96487.03;;;7.04;100.00
57594;BME280;43423;46.510;6.686;2023-11-22T00:52:13;96491.31;;;7.14;100.00
57594;BME280;43423;46.510;6.686;2023-11-22T00:54:39;96496.00;;;7.14;100.00
57594;BME280;43423;46.510;6.686;2023-11-22T00:57:05;96485.38;;;7.16;100.00
57594;BME280;43423;46.510;6.686;2023-11-22T00:59:32;96490.25;;;7.21;100.00
57594;BME280;43423;46.510;6.686;2023-11-22T01:01:58;96496.31;;;7.07;100.00
57594;BME280;43423;46.510;6.686;2023-11-22T01:04:24;96497.41;;;7.27;100.00
57594;BME280;43423;46.510;6.686;2023-11-22T01:06:49;96495.25;;;7.22;100.00
57594;BME280;43423;46.510;6.686;2023-11-22T01:09:15;96498.91;;;7.28;100.00
57594;BME280;43423;46.510;6.686;2023-11-22T01:11:40;96498.44;;;7.12;100.00
57594;BME280;43423;46.510;6.686;2023-11-22T01:14:06;96498.56;;;6.90;100.00
57594;BME280;43423;46.510;6.686;2023-11-22T01:16:32;96495.25;;;7.13;100.00
57594;BME280;43423;46.510;6.686;2023-11-22T01:18:57;96501.19;;;7.39;100.00
57594;BME280;43423;46.510;6.686;2023-11-22T01:21:23;96512.00;;;7.43;99.33
57594;BME280;43423;46.510;6.686;2023-11-22T01:23:49;96502.56;;;7.35;99.27
57594;BME280;43423;46.510;6.686;2023-11-22T01:26:14;96507.41;;;7.21;99.09
57594;BME280;43423;46.510;6.686;2023-11-22T01:28:42;96512.75;;;7.43;99.14
57594;BME280;43423;46.510;6.686;2023-11-22T01:31:11;96512.59;;;7.28;100.00
57594;BME280;43423;46.510;6.686;2023-11-22T01:33:37;96514.88;;;7.30;100.00
57594;BME280;43423;46.510;6.686;2023-11-22T01:36:02;96520.63;;;7.41;99.79
57594;BME280;43423;46.510;6.686;2023-11-22T01:38:28;96511.50;;;7.26;100.00
57594;BME280;43423;46.510;6.686;2023-11-22T01:40:53;96518.34;;;7.21;100.00
57594;BME280;43423;46.510;6.686;2023-11-22T01:43:20;96517.00;;;7.35;100.00
57594;BME280;43423;46.510;6.686;2023-11-22T01:45:46;96522.00;;;7.37;100.00
57594;BME280;43423;46.510;6.686;2023-11-22T01:48:12;96534.59;;;7.34;100.00
57594;BME280;43423;46.510;6.686;2023-11-22T01:50:39;96533.41;;;7.44;100.00
57594;BME280;43423;46.510;6.686;2023-11-22T01:53:06;96530.38;;;7.51;99.32
57594;BME280;43423;46.510;6.686;2023-11-22T01:55:33;96530.06;;;7.40;99.48
57594;BME280;43423;46.510;6.686;2023-11-22T01:58:00;96542.09;;;7.43;99.32
57594;BME280;43423;46.510;6.686;2023-11-22T02:00:32;96543.72;;;7.31;99.59
57594;BME280;43423;46.510;6.686;2023-11-22T02:02:58;96546.00;;;7.33;99.16
57594;BME280;43423;46.510;6.686;2023-11-22T02:05:24;96532.50;;;7.56;98.86
57594;BME280;43423;46.510;6.686;2023-11-22T02:07:50;96536.75;;;7.48;99.10
57594;BME280;43423;46.510;6.686;2023-11-22T02:10:15;96540.25;;;7.40;99.61
57594;BME280;43423;46.510;6.686;2023-11-22T02:12:42;96544.94;;;7.48;99.32
57594;BME280;43423;46.510;6.686;2023-11-22T02:15:07;96543.13;;;7.45;99.10
57594;BME280;43423;46.510;6.686;2023-11-22T02:17:33;96531.41;;;7.26;100.00
57594;BME280;43423;46.510;6.686;2023-11-22T02:19:59;96542.81;;;7.34;100.00
57594;BME280;43423;46.510;6.686;2023-11-22T02:22:25;96532.31;;;7.42;99.08
57594;BME280;43423;46.510;6.686;2023-11-22T02:24:51;96534.31;;;7.23;99.40
57594;BME280;43423;46.510;6.686;2023-11-22T02:27:16;96536.28;;;7.22;100.00
57594;BME280;43423;46.510;6.686;2023-11-22T02:29:44;96535.81;;;7.15;100.00
57594;BME280;43423;46.510;6.686;2023-11-22T02:32:10;96535.19;;;7.11;100.00
57594;BME280;43423;46.510;6.686;2023-11-22T02:34:36;96539.75;;;7.14;100.00
57594;BME280;43423;46.510;6.686;2023-11-22T02:37:02;96535.19;;;7.11;100.00
57594;BME280;43423;46.510;6.686;2023-11-22T02:39:41;96538.84;;;7.08;100.00
57594;BME280;43423;46.510;6.686;2023-11-22T02:42:10;96545.06;;;7.17;99.38
57594;BME280;43423;46.510;6.686;2023-11-22T02:44:36;96544.94;;;7.12;99.28
57594;BME280;43423;46.510;6.686;2023-11-22T02:47:02;96538.25;;;7.22;98.30
57594;BME280;43423;46.510;6.686;2023-11-22T02:49:27;96544.03;;;7.24;98.62
57594;BME280;43423;46.510;6.686;2023-11-22T02:51:53;96545.69;;;7.21;99.00
57594;BME280;43423;46.510;6.686;2023-11-22T02:54:18;96543.88;;;7.27;98.53
57594;BME280;43423;46.510;6.686;2023-11-22T02:56:44;96547.53;;;7.34;98.00
57594;BME280;43423;46.510;6.686;2023-11-22T02:59:10;96547.22;;;7.32;98.84
57594;BME280;43423;46.510;6.686;2023-11-22T03:01:38;96559.84;;;7.20;99.30
57594;BME280;43423;46.510;6.686;2023-11-22T03:04:08;96562.97;;;7.09;100.00
57594;BME280;43423;46.510;6.686;2023-11-22T03:06:34;96561.66;;;7.23;100.00
57594;BME280;43423;46.510;6.686;2023-11-22T03:09:01;96567.75;;;7.36;99.19
57594;BME280;43423;46.510;6.686;2023-11-22T03:11:27;96563.19;;;7.33;99.27
57594;BME280;43423;46.510;6.686;2023-11-22T03:13:53;96558.97;;;7.50;97.91
57594;BME280;43423;46.510;6.686;2023-11-22T03:16:18;96573.50;;;7.20;100.00
57594;BME280;43423;46.510;6.686;2023-11-22T03:18:44;96574.75;;;7.37;98.88
57594;BME280;43423;46.510;6.686;2023-11-22T03:21:10;96580.19;;;7.19;99.94
57594;BME280;43423;46.510;6.686;2023-11-22T03:23:35;96574.41;;;7.26;100.00
57594;BME280;43423;46.510;6.686;2023-11-22T03:26:01;96573.78;;;7.13;100.00
57594;BME280;43423;46.510;6.686;2023-11-22T03:28:28;96570.13;;;7.07;100.00
57594;BME280;43423;46.510;6.686;2023-11-22T03:30:55;96576.25;;;7.20;100.00
57594;BME280;43423;46.510;6.686;2023-11-22T03:33:21;96566.19;;;7.17;100.00
57594;BME280;43423;46.510;6.686;2023-11-22T03:35:47;96574.41;;;7.26;100.00
57594;BME280;43423;46.510;6.686;2023-11-22T03:38:12;96569.69;;;7.26;99.50
57594;BME280;43423;46.510;6.686;2023-11-22T03:40:38;96566.19;;;7.26;100.00
57594;BME280;43423;46.510;6.686;2023-11-22T03:43:04;96566.81;;;7.30;100.00
57594;BME280;43423;46.510;6.686;2023-11-22T03:45:30;96570.47;;;7.27;99.14
57594;BME280;43423;46.510;6.686;2023-11-22T03:47:55;96575.34;;;7.41;99.25
57594;BME280;43423;46.510;6.686;2023-11-22T03:50:21;96575.03;;;7.30;99.53
57594;BME280;43423;46.510;6.686;2023-11-22T03:52:46;96575.66;;;7.52;99.14
57594;BME280;43423;46.510;6.686;2023-11-22T03:55:13;96582.97;;;7.46;98.94
57594;BME280;43423;46.510;6.686;2023-11-22T03:57:39;96585.69;;;7.28;99.00
57594;BME280;43423;46.510;6.686;2023-11-22T04:00:05;96590.25;;;7.40;98.98
57594;BME280;43423;46.510;6.686;2023-11-22T04:02:31;96594.19;;;7.39;99.19
57594;BME280;43423;46.510;6.686;2023-11-22T04:04:57;96590.41;;;7.37;99.80
57594;BME280;43423;46.510;6.686;2023-11-22T04:07:23;96596.81;;;7.52;99.43
57594;BME280;43423;46.510;6.686;2023-11-22T04:09:48;96596.16;;;7.39;99.53
57594;BME280;43423;46.510;6.686;2023-11-22T04:12:14;96598.63;;;7.46;100.00
57594;BME280;43423;46.510;6.686;2023-11-22T04:14:40;96600.28;;;7.43;99.58
57594;BME280;43423;46.510;6.686;2023-11-22T04:17:05;96603.88;;;7.22;99.94
57594;BME280;43423;46.510;6.686;2023-11-22T04:19:31;96598.69;;;7.15;100.00
57594;BME280;43423;46.510;6.686;2023-11-22T04:21:57;96603.69;;;7.07;100.00
57594;BME280;43423;46.510;6.686;2023-11-22T04:24:22;96597.34;;;6.79;100.00
57594;BME280;43423;46.510;6.686;2023-11-22T04:26:48;96591.03;;;6.91;100.00
57594;BME280;43423;46.510;6.686;2023-11-22T04:29:14;96598.81;;;7.02;100.00
57594;BME280;43423;46.510;6.686;2023-11-22T04:31:39;96595.66;;;7.13;100.00
57594;BME280;43423;46.510;6.686;2023-11-22T04:34:05;96587.75;;;7.15;99.29
57594;BME280;43423;46.510;6.686;2023-11-22T04:36:31;96599.56;;;7.03;99.64
57594;BME280;43423;46.510;6.686;2023-11-22T04:38:56;96600.19;;;7.07;100.00
57594;BME280;43423;46.510;6.686;2023-11-22T04:41:22;96589.13;;;6.70;100.00
57594;BME280;43423;46.510;6.686;2023-11-22T04:43:48;96598.16;;;6.80;100.00
57594;BME280;43423;46.510;6.686;2023-11-22T04:46:14;96606.28;;;7.11;99.79
57594;BME280;43423;46.510;6.686;2023-11-22T04:48:40;96607.13;;;6.89;100.00
57594;BME280;43423;46.510;6.686;2023-11-22T04:51:07;96602.75;;;7.01;100.00
57594;BME280;43423;46.510;6.686;2023-11-22T04:53:33;96602.28;;;6.93;100.00
57594;BME280;43423;46.510;6.686;2023-11-22T04:55:58;96596.41;;;7.04;99.91
57594;BME280;43423;46.510;6.686;2023-11-22T04:58:24;96601.38;;;6.87;100.00
57594;BME280;43423;46.510;6.686;2023-11-22T05:00:50;96607.00;;;7.02;100.00
57594;BME280;43423;46.510;6.686;2023-11-22T05:03:16;96600.22;;;6.66;100.00
57594;BME280;43423;46.510;6.686;2023-11-22T05:05:41;96617.88;;;6.84;100.00
57594;BME280;43423;46.510;6.686;2023-11-22T05:08:07;96608.44;;;6.76;100.00
57594;BME280;43423;46.510;6.686;2023-11-22T05:10:32;96613.41;;;6.68;100.00
57594;BME280;43423;46.510;6.686;2023-11-22T05:12:58;96626.13;;;6.93;100.00
57594;BME280;43423;46.510;6.686;2023-11-22T05:15:26;96625.97;;;6.56;100.00
57594;BME280;43423;46.510;6.686;2023-11-22T05:17:52;96624.66;;;6.70;100.00
57594;BME280;43423;46.510;6.686;2023-11-22T05:20:18;96633.50;;;6.74;100.00
57594;BME280;43423;46.510;6.686;2023-11-22T05:22:43;96628.38;;;6.85;100.00
57594;BME280;43423;46.510;6.686;2023-11-22T05:25:09;96633.25;;;6.90;100.00
57594;BME280;43423;46.510;6.686;2023-11-22T05:27:35;96632.34;;;6.93;100.00
57594;BME280;43423;46.510;6.686;2023-11-22T05:30:00;96636.97;;;7.06;99.91
57594;BME280;43423;46.510;6.686;2023-11-22T05:32:27;96639.41;;;7.13;99.56
57594;BME280;43423;46.510;6.686;2023-11-22T05:34:53;96643.47;;;6.99;100.00
57594;BME280;43423;46.510;6.686;2023-11-22T05:37:20;96629.50;;;6.97;100.00
57594;BME280;43423;46.510;6.686;2023-11-22T05:39:45;96653.38;;;7.15;99.78
57594;BME280;43423;46.510;6.686;2023-11-22T05:42:11;96648.63;;;6.97;100.00
57594;BME280;43423;46.510;6.686;2023-11-22T05:44:37;96643.72;;;6.92;100.00
57594;BME280;43423;46.510;6.686;2023-11-22T05:47:03;96644.72;;;7.07;100.00
57594;BME280;43423;46.510;6.686;2023-11-22T05:49:28;96662.75;;;6.95;100.00
57594;BME280;43423;46.510;6.686;2023-11-22T05:51:54;96663.09;;;7.07;100.00
57594;BME280;43423;46.510;6.686;2023-11-22T05:54:19;96670.31;;;6.91;100.00
57594;BME280;43423;46.510;6.686;2023-11-22T05:56:45;96684.97;;;7.07;99.93
57594;BME280;43423;46.510;6.686;2023-11-22T05:59:11;96682.41;;;7.12;99.42
57594;BME280;43423;46.510;6.686;2023-11-22T06:01:36;96693.47;;;7.09;99.48
57594;BME280;43423;46.510;6.686;2023-11-22T06:04:02;96686.56;;;6.95;100.00
57594;BME280;43423;46.510;6.686;2023-11-22T06:06:28;96695.84;;;6.97;100.00
57594;BME280;43423;46.510;6.686;2023-11-22T06:08:54;96693.97;;;6.85;100.00
57594;BME280;43423;46.510;6.686;2023-11-22T06:11:20;96699.38;;;7.07;100.00
57594;BME280;43423;46.510;6.686;2023-11-22T06:13:46;96683.13;;;7.04;100.00
57594;BME280;43423;46.510;6.686;2023-11-22T06:16:13;96688.59;;;7.04;100.00
57594;BME280;43423;46.510;6.686;2023-11-22T06:18:38;96682.16;;;6.88;100.00
57594;BME280;43423;46.510;6.686;2023-11-22T06:21:07;96677.94;;;6.96;100.00
57594;BME280;43423;46.510;6.686;2023-11-22T06:23:32;96684.91;;;6.97;100.00
57594;BME280;43423;46.510;6.686;2023-11-22T06:25:58;96679.53;;;6.85;100.00
57594;BME280;43423;46.510;6.686;2023-11-22T06:28:24;96686.28;;;6.71;100.00
57594;BME280;43423;46.510;6.686;2023-11-22T06:30:50;96682.06;;;6.79;100.00
57594;BME280;43423;46.510;6.686;2023-11-22T06:33:16;96690.56;;;6.72;100.00
57594;BME280;43423;46.510;6.686;2023-11-22T06:35:42;96703.53;;;6.81;100.00
57594;BME280;43423;46.510;6.686;2023-11-22T06:38:08;96691.41;;;6.91;100.00
57594;BME280;43423;46.510;6.686;2023-11-22T06:40:34;96688.72;;;6.69;100.00
57594;BME280;43423;46.510;6.686;2023-11-22T06:42:59;96695.44;;;6.77;100.00
57594;BME280;43423;46.510;6.686;2023-11-22T06:45:25;96703.75;;;6.95;100.00
57594;BME280;43423;46.510;6.686;2023-11-22T06:47:51;96705.75;;;7.04;99.58
57594;BME280;43423;46.510;6.686;2023-11-22T06:50:17;96700.34;;;6.82;100.00
57594;BME280;43423;46.510;6.686;2023-11-22T06:52:42;96699.31;;;6.89;100.00
57594;BME280;43423;46.510;6.686;2023-11-22T06:55:09;96711.75;;;6.90;99.40
57594;BME280;43423;46.510;6.686;2023-11-22T06:57:36;96702.34;;;6.91;99.75
57594;BME280;43423;46.510;6.686;2023-11-22T07:00:03;96713.44;;;6.87;99.04
57594;BME280;43423;46.510;6.686;2023-11-22T07:02:33;96706.53;;;7.05;98.63
57594;BME280;43423;46.510;6.686;2023-11-22T07:05:04;96706.69;;;6.79;99.46
57594;BME280;43423;46.510;6.686;2023-11-22T07:07:36;96716.28;;;7.15;98.01
57594;BME280;43423;46.510;6.686;2023-11-22T07:10:03;96721.31;;;7.16;97.67
57594;BME280;43423;46.510;6.686;2023-11-22T07:12:33;96723.91;;;7.20;96.72
57594;BME280;43423;46.510;6.686;2023-11-22T07:15:00;96730.94;;;7.30;96.45
57594;BME280;43423;46.510;6.686;2023-11-22T07:17:25;96739.63;;;7.38;95.31
57594;BME280;43423;46.510;6.686;2023-11-22T07:19:54;96728.81;;;7.34;94.97
57594;BME280;43423;46.510;6.686;2023-11-22T07:22:20;96732.72;;;6.93;96.99
57594;BME280;43423;46.510;6.686;2023-11-22T07:24:48;96731.78;;;7.18;95.84
57594;BME280;43423;46.510;6.686;2023-11-22T07:27:20;96733.59;;;7.43;95.02
57594;BME280;43423;46.510;6.686;2023-11-22T07:29:46;96744.88;;;7.23;94.67
57594;BME280;43423;46.510;6.686;2023-11-22T07:32:12;96742.56;;;7.43;94.37
57594;BME280;43423;46.510;6.686;2023-11-22T07:34:39;96742.44;;;7.25;95.49
57594;BME280;43423;46.510;6.686;2023-11-22T07:37:06;96735.69;;;7.39;94.41
57594;BME280;43423;46.510;6.686;2023-11-22T07:39:36;96752.06;;;7.70;94.30
57594;BME280;43423;46.510;6.686;2023-11-22T07:42:02;96752.72;;;7.92;91.99
57594;BME280;43423;46.510;6.686;2023-11-22T07:44:28;96760.66;;;8.27;90.74
57594;BME280;43423;46.510;6.686;2023-11-22T07:46:58;96759.16;;;8.26;91.15
57594;BME280;43423;46.510;6.686;2023-11-22T07:49:25;96753.72;;;8.62;88.87
57594;BME280;43423;46.510;6.686;2023-11-22T07:51:51;96744.84;;;8.95;86.14
57594;BME280;43423;46.510;6.686;2023-11-22T07:54:19;96751.97;;;8.92;86.37
57594;BME280;43423;46.510;6.686;2023-11-22T07:56:51;96761.97;;;9.32;84.24
57594;BME280;43423;46.510;6.686;2023-11-22T07:59:18;96773.06;;;9.38;83.35
57594;BME280;43423;46.510;6.686;2023-11-22T08:01:44;96796.69;;;9.77;82.23
57594;BME280;43423;46.510;6.686;2023-11-22T08:04:10;96790.13;;;9.42;81.95
57594;BME280;43423;46.510;6.686;2023-11-22T08:06:36;96795.41;;;9.03;83.97
57594;BME280;43423;46.510;6.686;2023-11-22T08:09:02;96799.31;;;9.30;84.68
57594;BME280;43423;46.510;6.686;2023-11-22T08:11:29;96808.91;;;9.76;82.04
57594;BME280;43423;46.510;6.686;2023-11-22T08:13:55;96812.31;;;10.04;80.34
57594;BME280;43423;46.510;6.686;2023-11-22T08:16:25;96808.78;;;10.04;79.95
57594;BME280;43423;46.510;6.686;2023-11-22T08:18:51;96817.25;;;9.91;80.22
57594;BME280;43423;46.510;6.686;2023-11-22T08:21:17;96810.41;;;10.44;78.84
57594;BME280;43423;46.510;6.686;2023-11-22T08:23:43;96799.38;;;10.68;76.41
57594;BME280;43423;46.510;6.686;2023-11-22T08:26:08;96810.63;;;10.94;77.02
57594;BME280;43423;46.510;6.686;2023-11-22T08:28:34;96817.28;;;11.90;73.13
57594;BME280;43423;46.510;6.686;2023-11-22T08:31:00;96827.56;;;12.86;70.52
57594;BME280;43423;46.510;6.686;2023-11-22T08:33:30;96827.47;;;13.01;67.63
57594;BME280;43423;46.510;6.686;2023-11-22T08:35:55;96837.69;;;12.54;67.16
57594;BME280;43423;46.510;6.686;2023-11-22T08:38:25;96837.00;;;13.00;69.57
57594;BME280;43423;46.510;6.686;2023-11-22T08:40:53;96835.72;;;11.84;69.49
57594;BME280;43423;46.510;6.686;2023-11-22T08:43:20;96838.63;;;12.10;72.08
57594;BME280;43423;46.510;6.686;2023-11-22T08:45:49;96837.09;;;12.44;68.62
57594;BME280;43423;46.510;6.686;2023-11-22T08:48:15;96842.69;;;13.17;69.52
57594;BME280;43423;46.510;6.686;2023-11-22T08:50:42;96832.25;;;12.60;67.18
57594;BME280;43423;46.510;6.686;2023-11-22T08:53:10;96831.69;;;12.35;68.51
57594;BME280;43423;46.510;6.686;2023-11-22T08:55:35;96832.63;;;12.12;68.80
57594;BME280;43423;46.510;6.686;2023-11-22T08:58:01;96810.06;;;11.93;70.35
57594;BME280;43423;46.510;6.686;2023-11-22T09:00:27;96814.31;;;12.09;71.63
57594;BME280;43423;46.510;6.686;2023-11-22T09:02:54;96815.47;;;12.02;71.15
57594;BME280;43423;46.510;6.686;2023-11-22T09:05:22;96813.78;;;12.25;71.14
57594;BME280;43423;46.510;6.686;2023-11-22T09:07:49;96822.16;;;11.81;69.50
57594;BME280;43423;46.510;6.686;2023-11-22T09:10:14;96816.34;;;11.49;71.36
57594;BME280;43423;46.510;6.686;2023-11-22T09:12:41;96818.41;;;11.84;72.43
57594;BME280;43423;46.510;6.686;2023-11-22T09:15:08;96818.00;;;12.06;69.87
57594;BME280;43423;46.510;6.686;2023-11-22T09:17:39;96821.09;;;11.49;72.96
57594;BME280;43423;46.510;6.686;2023-11-22T09:20:15;96807.53;;;11.30;71.86
57594;BME280;43423;46.510;6.686;2023-11-22T09:22:45;96822.13;;;11.36;71.99
57594;BME280;43423;46.510;6.686;2023-11-22T09:25:17;96817.69;;;11.24;71.25
57594;BME280;43423;46.510;6.686;2023-11-22T09:27:45;96806.06;;;11.05;72.08
57594;BME280;43423;46.510;6.686;2023-11-22T09:30:15;96803.72;;;11.13;73.75
57594;BME280;43423;46.510;6.686;2023-11-22T09:33:13;96800.38;;;11.68;72.15
57594;BME280;43423;46.510;6.686;2023-11-22T09:35:43;96799.56;;;12.73;68.20
57594;BME280;43423;46.510;6.686;2023-11-22T09:38:10;96798.38;;;12.18;68.73
57594;BME280;43423;46.510;6.686;2023-11-22T09:43:06;96786.88;;;12.81;67.72
57594;BME280;43423;46.510;6.686;2023-11-22T09:45:32;96786.22;;;11.90;68.56
57594;BME280;43423;46.510;6.686;2023-11-22T09:47:59;96795.03;;;11.79;70.72
57594;BME280;43423;46.510;6.686;2023-11-22T09:50:40;96800.22;;;12.07;68.34
57594;BME280;43423;46.510;6.686;2023-11-22T09:54:07;96807.00;;;12.26;68.15
57594;BME280;43423;46.510;6.686;2023-11-22T09:56:03;96805.34;;;12.54;67.25
57594;BME280;43423;46.510;6.686;2023-11-22T09:58:32;96819.69;;;12.99;65.97
57594;BME280;43423;46.510;6.686;2023-11-22T10:01:01;96813.28;;;12.47;67.53
57594;BME280;43423;46.510;6.686;2023-11-22T10:03:28;96809.28;;;12.48;65.10
57594;BME280;43423;46.510;6.686;2023-11-22T10:05:57;96814.19;;;12.38;64.24
57594;BME280;43423;46.510;6.686;2023-11-22T10:08:25;96813.22;;;12.62;60.07
57594;BME280;43423;46.510;6.686;2023-11-22T10:10:53;96810.84;;;12.14;62.91
57594;BME280;43423;46.510;6.686;2023-11-22T10:13:20;96818.22;;;12.02;63.47
57594;BME280;43423;46.510;6.686;2023-11-22T10:15:47;96810.88;;;12.75;60.76
57594;BME280;43423;46.510;6.686;2023-11-22T10:18:13;96809.28;;;13.14;59.06
57594;BME280;43423;46.510;6.686;2023-11-22T10:20:41;96806.31;;;13.18;58.12
57594;BME280;43423;46.510;6.686;2023-11-22T10:23:11;96810.53;;;12.26;60.66
57594;BME280;43423;46.510;6.686;2023-11-22T10:25:49;96805.28;;;12.90;58.72
57594;BME280;43423;46.510;6.686;2023-11-22T10:28:16;96803.22;;;11.59;62.33
57594;BME280;43423;46.510;6.686;2023-11-22T10:30:46;96784.88;;;12.20;63.41
57594;BME280;43423;46.510;6.686;2023-11-22T10:33:13;96794.66;;;12.82;60.82
57594;BME280;43423;46.510;6.686;2023-11-22T10:35:43;96804.53;;;13.15;59.97
57594;BME280;43423;46.510;6.686;2023-11-22T10:38:09;96799.75;;;13.67;58.78
57594;BME280;43423;46.510;6.686;2023-11-22T10:40:36;96799.94;;;13.06;59.87
57594;BME280;43423;46.510;6.686;2023-11-22T10:43:02;96796.06;;;13.50;57.58
57594;BME280;43423;46.510;6.686;2023-11-22T10:45:30;96804.84;;;13.75;57.67
57594;BME280;43423;46.510;6.686;2023-11-22T10:48:00;96809.16;;;13.24;59.76
57594;BME280;43423;46.510;6.686;2023-11-22T10:50:26;96795.84;;;12.35;59.65
57594;BME280;43423;46.510;6.686;2023-11-22T10:52:57;96813.66;;;13.01;59.91
57594;BME280;43423;46.510;6.686;2023-11-22T10:55:31;96818.03;;;13.33;57.58
57594;BME280;43423;46.510;6.686;2023-11-22T10:58:03;96821.94;;;13.79;56.63
57594;BME280;43423;46.510;6.686;2023-11-22T11:00:32;96808.50;;;12.07;60.31
57594;BME280;43423;46.510;6.686;2023-11-22T11:03:08;96802.94;;;12.82;58.99
57594;BME280;43423;46.510;6.686;2023-11-22T11:05:40;96808.66;;;13.51;57.43
57594;BME280;43423;46.510;6.686;2023-11-22T11:08:08;96796.50;;;13.37;56.46
57594;BME280;43423;46.510;6.686;2023-11-22T11:10:45;96787.41;;;13.11;58.30
57594;BME280;43423;46.510;6.686;2023-11-22T11:13:12;96791.22;;;12.67;59.82
57594;BME280;43423;46.510;6.686;2023-11-22T11:15:42;96793.00;;;13.17;57.50
57594;BME280;43423;46.510;6.686;2023-11-22T11:18:15;96773.91;;;13.39;57.88
57594;BME280;43423;46.510;6.686;2023-11-22T11:20:57;96779.03;;;13.26;57.27
57594;BME280;43423;46.510;6.686;2023-11-22T11:23:26;96787.16;;;13.35;56.88
57594;BME280;43423;46.510;6.686;2023-11-22T11:25:56;96799.03;;;13.41;57.01
57594;BME280;43423;46.510;6.686;2023-11-22T11:28:23;96812.13;;;13.78;57.72
57594;BME280;43423;46.510;6.686;2023-11-22T11:30:56;96784.13;;;13.59;55.60
57594;BME280;43423;46.510;6.686;2023-11-22T11:33:34;96790.91;;;13.32;55.90
57594;BME280;43423;46.510;6.686;2023-11-22T11:36:03;96792.53;;;13.44;56.75
57594;BME280;43423;46.510;6.686;2023-11-22T11:38:32;96789.56;;;13.22;56.80
57594;BME280;43423;46.510;6.686;2023-11-22T11:41:06;96787.66;;;12.87;58.21
57594;BME280;43423;46.510;6.686;2023-11-22T11:43:47;96792.91;;;12.85;57.33
57594;BME280;43423;46.510;6.686;2023-11-22T11:46:16;96795.19;;;13.64;55.46
57594;BME280;43423;46.510;6.686;2023-11-22T11:48:49;96803.78;;;13.14;56.69
57594;BME280;43423;46.510;6.686;2023-11-22T11:51:21;96804.06;;;13.43;56.25
57594;BME280;43423;46.510;6.686;2023-11-22T11:53:47;96802.53;;;12.69;58.40
57594;BME280;43423;46.510;6.686;2023-11-22T11:56:13;96788.81;;;12.34;58.08
57594;BME280;43423;46.510;6.686;2023-11-22T11:58:42;96806.22;;;12.05;59.53
57594;BME280;43423;46.510;6.686;2023-11-22T12:01:08;96806.38;;;11.07;61.61
57594;BME280;43423;46.510;6.686;2023-11-22T12:03:38;96809.44;;;11.54;63.06
57594;BME280;43423;46.510;6.686;2023-11-22T12:06:05;96806.59;;;12.74;58.34
57594;BME280;43423;46.510;6.686;2023-11-22T12:08:30;96795.34;;;11.52;60.23
57594;BME280;43423;46.510;6.686;2023-11-22T12:11:02;96812.06;;;11.78;61.12
57594;BME280;43423;46.510;6.686;2023-11-22T12:13:28;96805.44;;;11.55;60.73
57594;BME280;43423;46.510;6.686;2023-11-22T12:15:54;96801.34;;;12.15;61.36
57594;BME280;43423;46.510;6.686;2023-11-22T12:18:20;96802.00;;;12.24;60.65
57594;BME280;43423;46.510;6.686;2023-11-22T12:20:59;96795.44;;;13.35;57.41
57594;BME280;43423;46.510;6.686;2023-11-22T12:23:26;96810.00;;;12.08;59.86
57594;BME280;43423;46.510;6.686;2023-11-22T12:25:56;96797.09;;;11.99;59.14
57594;BME280;43423;46.510;6.686;2023-11-22T12:28:29;96798.50;;;11.44;61.88
57594;BME280;43423;46.510;6.686;2023-11-22T12:31:06;96793.34;;;11.67;61.82
57594;BME280;43423;46.510;6.686;2023-11-22T12:33:32;96802.53;;;12.69;58.88
57594;BME280;43423;46.510;6.686;2023-11-22T12:35:58;96793.06;;;12.55;58.82
57594;BME280;43423;46.510;6.686;2023-11-22T12:38:23;96801.34;;;12.55;56.67
57594;BME280;43423;46.510;6.686;2023-11-22T12:40:51;96810.59;;;13.19;56.62
57594;BME280;43423;46.510;6.686;2023-11-22T12:43:17;96793.38;;;11.08;61.42
57594;BME280;43423;46.510;6.686;2023-11-22T12:45:42;96805.72;;;12.07;60.79
57594;BME280;43423;46.510;6.686;2023-11-22T12:48:24;96809.53;;;13.37;57.55
57594;BME280;43423;46.510;6.686;2023-11-22T12:50:51;96806.06;;;13.42;56.25
57594;BME280;43423;46.510;6.686;2023-11-22T12:53:18;96819.81;;;13.62;56.37
57594;BME280;43423;46.510;6.686;2023-11-22T12:55:51;96813.63;;;12.75;57.46
57594;BME280;43423;46.510;6.686;2023-11-22T12:58:17;96815.84;;;13.17;56.87
57594;BME280;43423;46.510;6.686;2023-11-22T13:00:48;96827.09;;;13.97;55.30
57594;BME280;43423;46.510;6.686;2023-11-22T13:03:14;96834.22;;;13.00;54.46
57594;BME280;43423;46.510;6.686;2023-11-22T13:05:42;96835.75;;;13.21;55.12